createdAt,value
2023-03-23T16:00:19.458Z,15.42
2023-03-23T16:03:27.474Z,15.54
2023-03-23T16:06:32.751Z,15.67
2023-03-23T16:09:34.136Z,15.71
2023-03-23T16:12:35.594Z,15.53
2023-03-23T16:15:37.071Z,15.44
2023-03-23T16:18:38.499Z,15.48
2023-03-23T16:21:41.317Z,15.50
2023-03-23T16:24:42.707Z,15.44
2023-03-23T16:27:48.860Z,15.54
2023-03-23T16:30:51.900Z,15.63
2023-03-23T16:33:53.369Z,15.65
2023-03-23T16:36:54.742Z,15.72
2023-03-23T16:39:57.551Z,15.71
2023-03-23T16:42:59.359Z,15.62
2023-03-23T16:46:00.911Z,15.63
2023-03-23T16:49:02.318Z,15.66
2023-03-23T16:52:03.833Z,15.68
2023-03-23T16:55:06.741Z,15.68
2023-03-23T17:01:13.490Z,15.69
2023-03-23T17:04:15.610Z,15.73
2023-03-23T17:07:17.225Z,15.63
2023-03-23T17:10:18.893Z,15.66
2023-03-23T17:13:20.408Z,15.68
2023-03-23T17:16:21.825Z,15.69
2023-03-23T17:19:23.321Z,15.69
2023-03-23T17:22:25.697Z,15.67
2023-03-23T17:25:28.182Z,15.64
2023-03-23T17:28:29.608Z,15.65
2023-03-23T17:31:31.110Z,15.69
2023-03-23T17:34:32.602Z,15.62
2023-03-23T17:37:36.262Z,15.60
2023-03-23T17:40:37.768Z,15.59
2023-03-23T17:43:42.534Z,15.58
2023-03-23T17:46:45.410Z,15.62
2023-03-23T17:49:47.713Z,15.56
2023-03-23T17:52:49.850Z,15.48
2023-03-23T17:55:52.739Z,15.40
2023-03-23T17:58:54.507Z,15.41
2023-03-23T18:01:55.960Z,15.37
2023-03-23T18:04:58.139Z,15.43
2023-03-23T18:07:59.535Z,15.40
2023-03-23T18:11:01.276Z,15.39
2023-03-23T18:14:03.043Z,15.36
2023-03-23T18:17:05.291Z,15.41
2023-03-23T18:20:08.608Z,15.46
2023-03-23T18:23:10.795Z,15.49
2023-03-23T18:26:13.826Z,15.40
2023-03-23T18:29:15.314Z,15.33
2023-03-23T18:32:16.936Z,15.31
2023-03-23T18:35:18.582Z,15.29
2023-03-23T18:38:19.994Z,15.33
2023-03-23T18:41:21.425Z,15.37
2023-03-23T18:44:22.894Z,15.35
2023-03-23T18:47:24.368Z,15.34
2023-03-23T18:50:25.764Z,15.35
2023-03-23T18:53:28.189Z,15.35
2023-03-23T18:56:29.708Z,15.36
2023-03-23T18:59:33.719Z,15.32
2023-03-23T19:02:36.050Z,15.34
2023-03-23T19:05:39.493Z,15.36
2023-03-23T19:08:41.050Z,15.30
2023-03-23T19:11:47.204Z,15.29
2023-03-23T19:14:48.688Z,15.25
2023-03-23T19:17:55.792Z,15.25
2023-03-23T19:24:03.364Z,15.26
2023-03-23T19:27:05.642Z,15.23
2023-03-23T19:30:07.987Z,15.21
2023-03-23T19:33:09.451Z,15.20
2023-03-23T19:36:13.203Z,15.20
2023-03-23T19:39:15.216Z,15.20
2023-03-23T19:42:18.446Z,15.17
2023-03-23T19:45:20.276Z,15.20
2023-03-23T19:48:21.686Z,15.21
2023-03-23T19:51:23.546Z,15.25
2023-03-23T19:54:25.156Z,15.19
2023-03-23T19:57:26.850Z,15.22
2023-03-23T20:00:28.817Z,15.25
2023-03-23T20:03:30.194Z,15.23
2023-03-23T20:06:31.784Z,15.24
2023-03-23T20:09:33.334Z,15.23
2023-03-23T20:12:34.834Z,15.26
2023-03-23T20:15:36.922Z,15.26
2023-03-23T20:18:38.617Z,15.26
2023-03-23T20:21:40.272Z,15.27
2023-03-23T20:24:42.168Z,15.27
2023-03-23T20:27:45.330Z,15.31
2023-03-23T20:30:47.114Z,15.34
2023-03-23T20:34:12.866Z,15.33
2023-03-23T20:37:16.279Z,15.30
2023-03-23T20:40:18.556Z,15.27
2023-03-23T20:43:19.975Z,15.25
2023-03-23T20:46:22.019Z,15.24
2023-03-23T20:49:24.739Z,15.22
2023-03-23T20:52:26.258Z,15.18
2023-03-23T20:55:27.660Z,15.16
2023-03-23T20:58:29.788Z,15.14
2023-03-23T21:01:33.108Z,15.13
2023-03-23T21:04:37.102Z,15.09
2023-03-23T21:07:39.193Z,15.09
2023-03-23T21:10:40.930Z,15.09
2023-03-23T21:13:42.603Z,15.07
2023-03-23T21:16:44.127Z,15.06
2023-03-23T21:19:46.971Z,15.03
2023-03-23T21:22:48.374Z,15.00
2023-03-23T21:25:50.334Z,14.97
2023-03-23T21:28:54.008Z,14.95
2023-03-23T21:32:07.787Z,14.92
2023-03-23T21:35:10.179Z,14.86
2023-03-23T21:38:14.268Z,14.91
2023-03-23T21:41:15.907Z,14.82
2023-03-23T21:44:18.073Z,14.74
2023-03-23T21:47:19.502Z,14.72
2023-03-23T21:50:21.925Z,14.71
2023-03-23T21:53:25.342Z,14.67
2023-03-23T21:56:27.896Z,14.67
2023-03-23T21:59:29.354Z,14.67
2023-03-23T22:02:30.926Z,14.67
2023-03-23T22:05:32.375Z,14.64
2023-03-23T22:08:33.774Z,14.64
2023-03-23T22:11:37.272Z,14.66
2023-03-23T22:14:39.127Z,14.65
2023-03-23T22:17:41.121Z,14.66
2023-03-23T22:20:42.513Z,14.64
2023-03-23T22:23:45.257Z,14.58
2023-03-23T22:26:47.016Z,14.60
2023-03-23T22:29:48.420Z,14.60
2023-03-23T22:32:49.891Z,14.62
2023-03-23T22:35:51.343Z,14.62
2023-03-23T22:38:54.890Z,14.65
2023-03-23T22:41:56.470Z,14.68
2023-03-23T22:44:57.879Z,14.70
2023-03-23T22:47:59.741Z,14.70
2023-03-23T22:51:01.398Z,14.67
2023-03-23T22:54:04.258Z,14.70
2023-03-23T22:57:05.891Z,14.66
2023-03-23T23:00:14.008Z,14.61
2023-03-23T23:03:16.502Z,14.50
2023-03-23T23:06:19.118Z,14.42
2023-03-23T23:09:22.048Z,14.39
2023-03-23T23:12:24.150Z,14.40
2023-03-23T23:15:26.266Z,14.42
2023-03-23T23:18:28.072Z,14.40
2023-03-23T23:21:29.514Z,14.28
2023-03-23T23:24:31.141Z,14.18
2023-03-23T23:27:33.241Z,14.19
2023-03-23T23:30:35.012Z,14.21
2023-03-23T23:33:36.441Z,14.22
2023-03-23T23:36:38.323Z,14.23
2023-03-23T23:39:41.215Z,14.22
2023-03-23T23:42:44.492Z,14.21
2023-03-23T23:45:45.967Z,14.20
2023-03-23T23:48:47.414Z,14.12
2023-03-23T23:51:48.877Z,14.12
2023-03-23T23:54:51.404Z,14.11
2023-03-23T23:57:53.376Z,14.10
